Time;durP1;ratioP1;P1;durP2;ratioP2;P2;SDS_P1;SDS_P2;PMS_P1;PMS_P2;Temp;Humidity;BMP_temperature;BMP_pressure;BME280_temperature;BME280_humidity;BME280_pressure;Samples;Min_cycle;Max_cycle;Signal;HPM_P1;HPM_P2
2022/03/18 00:02:07;;;;;;;63.05;38.95;;;;;;;7.87;100.00;97728.28;5048065;28;20099;-46
2022/03/18 00:04:36;;;;;;;67.95;40.13;;;;;;;7.63;100.00;97726.25;5048128;28;20077;-50
2022/03/18 00:07:05;;;;;;;68.22;41.20;;;;;;;7.49;100.00;97724.47;5052529;28;20075;-52
2022/03/18 00:09:34;;;;;;;67.73;41.37;;;;;;;7.50;100.00;97722.69;5047616;28;20065;-51
2022/03/18 00:12:03;;;;;;;64.63;41.38;;;;;;;7.69;100.00;97730.28;5047935;28;20517;-45
2022/03/18 00:14:31;;;;;;;68.85;41.58;;;;;;;7.38;100.00;97725.16;5049016;28;20099;-49
2022/03/18 00:16:59;;;;;;;62.65;38.30;;;;;;;7.44;100.00;97718.69;5047790;28;20069;-49
2022/03/18 00:19:30;;;;;;;65.38;41.25;;;;;;;7.28;100.00;97733.66;5048077;28;20086;-46
2022/03/18 00:22:01;;;;;;;67.95;39.70;;;;;;;7.11;100.00;97730.28;5047676;28;20061;-51
2022/03/18 00:24:32;;;;;;;62.85;39.65;;;;;;;6.98;100.00;97728.47;5042032;28;20073;-48
2022/03/18 00:27:00;;;;;;;66.35;40.67;;;;;;;6.99;100.00;97727.56;5047226;28;20531;-46
2022/03/18 00:29:29;;;;;;;70.55;41.20;;;;;;;6.93;100.00;97722.69;5050698;28;20093;-55
2022/03/18 00:31:57;;;;;;;64.07;40.35;;;;;;;6.69;100.00;97723.19;5047483;28;20061;-50
2022/03/18 00:34:26;;;;;;;60.47;40.45;;;;;;;6.88;100.00;97722.94;5051690;28;20080;-51
2022/03/18 00:36:54;;;;;;;67.50;40.50;;;;;;;6.81;100.00;97725.09;5053001;28;20068;-51
2022/03/18 00:39:22;;;;;;;68.05;42.78;;;;;;;6.96;100.00;97723.34;5050689;28;20064;-51
2022/03/18 00:41:52;;;;;;;68.70;41.50;;;;;;;6.97;100.00;97719.78;5051607;28;20089;-46
2022/03/18 00:44:20;;;;;;;65.35;40.13;;;;;;;7.21;100.00;97725.31;5043888;28;20076;-48
2022/03/18 00:46:49;;;;;;;69.38;42.97;;;;;;;7.25;100.00;97729.44;5050981;28;20072;-47
2022/03/18 00:52:05;;;;;;;68.22;40.28;;;;;;;7.07;100.00;97731.41;5048806;28;20456;-48
2022/03/18 00:54:34;;;;;;;65.72;40.40;;;;;;;7.23;100.00;97733.13;5053369;28;20068;-49
2022/03/18 00:57:05;;;;;;;60.53;38.03;;;;;;;6.73;100.00;97729.91;5051057;28;20535;-53
2022/03/18 00:59:34;;;;;;;65.30;39.55;;;;;;;6.87;100.00;97729.13;5050937;28;20087;-48
2022/03/18 01:02:02;;;;;;;66.78;41.40;;;;;;;6.44;100.00;97736.84;5051494;28;20057;-47
2022/03/18 01:04:31;;;;;;;68.43;40.97;;;;;;;6.40;100.00;97736.19;5050989;28;20071;-47
2022/03/18 01:06:59;;;;;;;68.22;39.22;;;;;;;6.23;100.00;97745.91;5055642;28;20068;-51
2022/03/18 01:09:28;;;;;;;64.32;40.03;;;;;;;6.38;100.00;97740.66;5050567;28;20087;-50
2022/03/18 01:11:56;;;;;;;68.55;40.72;;;;;;;6.20;100.00;97738.25;5050593;28;20072;-47
2022/03/18 01:14:26;;;;;;;67.97;41.70;;;;;;;6.76;100.00;97736.78;5051489;28;20084;-47
2022/03/18 01:16:54;;;;;;;67.05;40.72;;;;;;;6.97;100.00;97734.66;5044391;28;20447;-50
2022/03/18 01:19:22;;;;;;;68.93;41.15;;;;;;;7.03;100.00;97736.94;5050710;28;20127;-47
2022/03/18 01:21:51;;;;;;;66.32;41.22;;;;;;;7.01;100.00;97730.91;5042368;28;20041;-47
2022/03/18 01:24:19;;;;;;;63.92;40.17;;;;;;;7.08;100.00;97727.84;5050732;28;20068;-48
2022/03/18 01:26:48;;;;;;;69.05;42.15;;;;;;;7.20;100.00;97728.06;5041837;28;20075;-47
2022/03/18 01:29:17;;;;;;;65.15;41.33;;;;;;;7.20;100.00;97730.69;5050054;28;20081;-52
2022/03/18 01:31:48;;;;;;;69.35;41.20;;;;;;;6.93;100.00;97728.75;5050324;28;20541;-47
2022/03/18 01:34:16;;;;;;;68.88;40.17;;;;;;;6.92;100.00;97732.31;5050206;28;20068;-48
2022/03/18 01:36:45;;;;;;;68.63;41.58;;;;;;;7.02;100.00;97735.22;5051634;28;20068;-50
2022/03/18 01:39:13;;;;;;;69.97;41.85;;;;;;;7.33;100.00;97732.47;5049627;28;20444;-48
2022/03/18 01:41:41;;;;;;;66.20;40.40;;;;;;;7.10;100.00;97741.72;5050388;28;20081;-50
2022/03/18 01:44:10;;;;;;;66.28;41.05;;;;;;;6.86;100.00;97733.53;5050500;28;20060;-47
2022/03/18 01:46:39;;;;;;;73.25;41.08;;;;;;;7.05;100.00;97740.28;5050043;28;20469;-46
2022/03/18 01:49:09;;;;;;;65.70;39.78;;;;;;;7.05;100.00;97737.66;5050042;28;20072;-53
2022/03/18 01:51:39;;;;;;;66.65;38.92;;;;;;;7.23;100.00;97733.13;5049850;28;20087;-47
2022/03/18 01:56:54;;;;;;;68.47;41.25;;;;;;;7.33;100.00;97742.13;5050124;28;20084;-46
2022/03/18 01:59:22;;;;;;;68.00;39.75;;;;;;;7.13;100.00;97740.69;5050085;28;20472;-52
2022/03/18 02:01:50;;;;;;;67.40;40.88;;;;;;;7.22;100.00;97739.28;5050143;28;20060;-53
2022/03/18 02:04:20;;;;;;;68.53;40.25;;;;;;;7.25;100.00;97739.09;5049664;28;20470;-51
2022/03/18 02:06:49;;;;;;;70.05;40.25;;;;;;;6.90;100.00;97739.44;5054115;28;20083;-49
2022/03/18 02:09:17;;;;;;;64.15;38.63;;;;;;;6.92;100.00;97742.81;5045693;28;20071;-52
2022/03/18 02:11:45;;;;;;;63.25;38.63;;;;;;;6.63;100.00;97747.13;5049486;28;20091;-53
2022/03/18 02:14:14;;;;;;;59.78;37.45;;;;;;;6.62;100.00;97750.69;5050142;28;20092;-46
2022/03/18 02:16:42;;;;;;;65.35;38.80;;;;;;;6.40;100.00;97743.19;5049575;28;20061;-47
2022/03/18 02:19:10;;;;;;;67.22;39.95;;;;;;;6.35;100.00;97747.84;5049141;28;20076;-45
2022/03/18 02:21:40;;;;;;;62.25;38.10;;;;;;;6.38;100.00;97753.75;5049662;28;20068;-49
2022/03/18 02:24:10;;;;;;;67.10;39.53;;;;;;;6.17;100.00;97757.59;5046753;28;20075;-49
2022/03/18 02:26:38;;;;;;;66.68;39.63;;;;;;;6.12;100.00;97760.44;5049690;28;20538;-46
2022/03/18 02:29:08;;;;;;;67.95;40.08;;;;;;;6.65;100.00;97755.75;5048889;28;20056;-48
2022/03/18 02:31:36;;;;;;;71.30;42.38;;;;;;;6.45;100.00;97761.28;5049119;28;20396;-48
2022/03/18 02:34:04;;;;;;;68.00;41.13;;;;;;;6.64;100.00;97760.16;5043174;28;20091;-46
2022/03/18 02:36:33;;;;;;;70.57;43.15;;;;;;;6.71;100.00;97763.25;5042850;28;20079;-50
2022/03/18 02:39:01;;;;;;;67.00;41.28;;;;;;;6.51;100.00;97759.16;5043645;28;20076;-48
2022/03/18 02:41:32;;;;;;;70.65;42.45;;;;;;;6.64;100.00;97762.78;5048016;28;20084;-52
2022/03/18 02:44:00;;;;;;;69.60;40.95;;;;;;;6.59;100.00;97756.09;5048920;28;20504;-46
2022/03/18 02:46:32;;;;;;;66.30;39.83;;;;;;;6.23;100.00;97753.75;5049067;28;20545;-52
2022/03/18 02:49:01;;;;;;;74.35;42.70;;;;;;;6.06;100.00;97765.22;5048930;28;20087;-51
2022/03/18 02:51:29;;;;;;;66.80;40.40;;;;;;;5.91;100.00;97766.84;5046682;28;20064;-47
2022/03/18 02:53:58;;;;;;;67.32;40.05;;;;;;;6.37;100.00;97757.31;5049450;28;20077;-47
2022/03/18 02:56:27;;;;;;;66.05;40.78;;;;;;;6.53;100.00;97753.81;5049570;28;20084;-47
2022/03/18 02:58:56;;;;;;;67.50;40.80;;;;;;;6.53;100.00;97757.28;5048820;28;20056;-45
2022/03/18 03:01:25;;;;;;;66.30;39.47;;;;;;;6.40;100.00;97761.53;5048808;28;20068;-47
2022/03/18 03:03:54;;;;;;;67.35;40.45;;;;;;;6.20;100.00;97765.28;5049104;28;20064;-49
2022/03/18 03:09:08;;;;;;;62.25;37.88;;;;;;;5.94;100.00;97766.69;5048471;28;20072;-45
2022/03/18 03:11:36;;;;;;;68.10;39.65;;;;;;;5.80;100.00;97766.59;5049049;28;20084;-47
2022/03/18 03:14:06;;;;;;;62.88;38.53;;;;;;;5.45;100.00;97764.91;5048174;28;20474;-50
2022/03/18 03:16:34;;;;;;;68.83;38.47;;;;;;;5.29;100.00;97771.03;5048973;28;20056;-48
2022/03/18 03:19:03;;;;;;;71.13;41.13;;;;;;;5.50;100.00;97767.28;5048051;28;20053;-46
2022/03/18 03:21:31;;;;;;;70.00;39.90;;;;;;;5.62;100.00;97769.25;5047570;28;20519;-48
2022/03/18 03:24:01;;;;;;;70.30;39.92;;;;;;;5.67;100.00;97771.63;5048290;28;20061;-46
2022/03/18 03:26:29;;;;;;;70.05;39.40;;;;;;;5.48;100.00;97780.44;5048760;28;20084;-51
2022/03/18 03:28:57;;;;;;;69.63;39.67;;;;;;;5.54;100.00;97786.28;5047815;28;20063;-53
2022/03/18 03:31:27;;;;;;;70.22;40.13;;;;;;;5.80;100.00;97788.38;5048635;28;20541;-53
2022/03/18 03:33:55;;;;;;;66.10;39.05;;;;;;;6.12;100.00;97788.41;5047857;28;20091;-50
2022/03/18 03:36:24;;;;;;;66.60;39.30;;;;;;;6.18;100.00;97785.47;5052933;28;20063;-50
2022/03/18 03:38:52;;;;;;;67.05;38.38;;;;;;;6.16;100.00;97792.59;5047620;28;20091;-49
2022/03/18 03:41:22;;;;;;;62.20;37.42;;;;;;;5.99;100.00;97792.63;5048662;28;20088;-48
2022/03/18 03:43:50;;;;;;;63.08;37.20;;;;;;;6.01;100.00;97799.47;5042262;28;20451;-51
2022/03/18 03:46:18;;;;;;;66.30;38.75;;;;;;;6.02;100.00;97801.19;5048632;28;20546;-54
2022/03/18 03:48:48;;;;;;;66.63;39.42;;;;;;;6.24;100.00;97802.63;5042242;28;20064;-51
2022/03/18 03:51:16;;;;;;;65.53;38.40;;;;;;;6.30;100.00;97800.50;5047984;28;20068;-51
2022/03/18 03:53:44;;;;;;;65.22;39.78;;;;;;;6.41;100.00;97813.84;5048609;28;20087;-48
2022/03/18 03:56:13;;;;;;;68.53;39.45;;;;;;;6.39;100.00;97815.69;5048859;28;20084;-45
2022/03/18 03:58:41;;;;;;;67.68;40.40;;;;;;;6.37;100.00;97820.22;5047706;28;20448;-52
2022/03/18 04:01:09;;;;;;;69.45;40.70;;;;;;;6.28;100.00;97817.25;5047980;28;20625;-49
2022/03/18 04:03:38;;;;;;;61.38;36.03;;;;;;;6.21;100.00;97821.97;5048130;28;20072;-49
2022/03/18 04:06:08;;;;;;;66.95;38.95;;;;;;;6.50;100.00;97829.97;5053165;28;20064;-48
2022/03/18 04:08:37;;;;;;;67.93;39.03;;;;;;;6.49;100.00;97829.16;5051937;28;20081;-47
2022/03/18 04:11:05;;;;;;;64.05;38.20;;;;;;;6.36;100.00;97828.97;5052125;28;20068;-47
2022/03/18 04:13:33;;;;;;;64.90;38.28;;;;;;;6.48;100.00;97834.47;5052299;28;20061;-46
2022/03/18 04:16:02;;;;;;;66.47;39.38;;;;;;;6.54;100.00;97837.63;5051631;28;20075;-48
2022/03/18 04:18:30;;;;;;;62.80;38.00;;;;;;;6.43;100.00;97839.97;5047576;28;20069;-51
2022/03/18 04:20:58;;;;;;;70.72;40.33;;;;;;;6.17;100.00;97838.78;5051923;28;20072;-51
2022/03/18 04:23:28;;;;;;;67.20;38.58;;;;;;;5.93;100.00;97843.56;5052011;28;20076;-52
2022/03/18 04:25:56;;;;;;;62.67;38.23;;;;;;;5.88;100.00;97849.03;5051480;28;20696;-52
2022/03/18 04:28:25;;;;;;;69.28;39.30;;;;;;;5.74;100.00;97853.28;5051794;28;21024;-47
2022/03/18 04:30:53;;;;;;;66.63;38.90;;;;;;;5.97;100.00;97852.09;5051333;28;20065;-49
2022/03/18 04:33:21;;;;;;;75.82;41.33;;;;;;;6.03;100.00;97859.63;5051691;28;20075;-49
2022/03/18 04:35:51;;;;;;;68.60;40.45;;;;;;;6.26;100.00;97859.22;5052692;28;20079;-51
2022/03/18 04:38:19;;;;;;;65.75;38.92;;;;;;;6.19;100.00;97857.88;5054804;28;20452;-53
2022/03/18 04:40:49;;;;;;;66.82;38.28;;;;;;;6.20;100.00;97863.97;5051232;28;20061;-48
2022/03/18 04:43:18;;;;;;;66.13;38.70;;;;;;;6.25;100.00;97865.41;5051532;28;20485;-49
2022/03/18 04:45:46;;;;;;;67.60;39.13;;;;;;;6.18;100.00;97867.50;5051254;28;20068;-48
2022/03/18 04:48:14;;;;;;;73.53;40.05;;;;;;;6.25;100.00;97864.56;5067032;28;20077;-48
2022/03/18 04:50:43;;;;;;;67.32;38.03;;;;;;;6.34;100.00;97862.28;5051463;28;20517;-48
2022/03/18 04:53:11;;;;;;;62.92;36.63;;;;;;;6.63;100.00;97865.06;5053478;28;21352;-46
2022/03/18 04:55:39;;;;;;;66.57;39.58;;;;;;;6.35;100.00;97871.00;5054191;28;20349;-49
2022/03/18 04:58:09;;;;;;;65.18;39.78;;;;;;;6.25;100.00;97872.41;5051018;28;20068;-51
2022/03/18 05:00:37;;;;;;;66.05;38.90;;;;;;;6.30;100.00;97880.88;5046139;28;20436;-48
2022/03/18 05:03:05;;;;;;;60.85;38.13;;;;;;;6.32;100.00;97869.38;5050903;28;20060;-45
2022/03/18 05:05:33;;;;;;;63.17;38.55;;;;;;;6.36;100.00;97878.75;5051667;28;20080;-48
2022/03/18 05:08:02;;;;;;;65.20;40.03;;;;;;;6.31;100.00;97885.19;5052535;28;20529;-47
2022/03/18 05:10:30;;;;;;;64.43;39.47;;;;;;;6.31;100.00;97886.03;5050824;28;20136;-46
2022/03/18 05:12:59;;;;;;;66.35;39.80;;;;;;;6.56;100.00;97889.94;5047774;28;20060;-51
2022/03/18 05:15:31;;;;;;;69.40;39.97;;;;;;;6.53;100.00;97896.19;5048503;28;20068;-51
2022/03/18 05:17:59;;;;;;;65.18;39.67;;;;;;;6.50;100.00;97893.72;5066056;28;20052;-52
2022/03/18 05:20:29;;;;;;;63.97;38.42;;;;;;;6.20;100.00;97898.88;5050679;28;20083;-49
2022/03/18 05:22:57;;;;;;;62.38;38.60;;;;;;;6.15;100.00;97899.09;5050675;28;20061;-52
2022/03/18 05:25:25;;;;;;;62.03;39.03;;;;;;;6.28;100.00;97896.69;5048798;28;20060;-46
2022/03/18 05:27:53;;;;;;;67.80;38.03;;;;;;;6.27;100.00;97895.00;5050690;28;20072;-47
2022/03/18 05:30:22;;;;;;;62.10;37.00;;;;;;;6.24;100.00;97895.16;5050200;28;20072;-47
2022/03/18 05:32:51;;;;;;;59.15;36.15;;;;;;;6.39;100.00;97907.41;5050557;28;20068;-47
2022/03/18 05:35:20;;;;;;;64.18;38.00;;;;;;;6.29;100.00;97916.69;5050547;28;20076;-49
2022/03/18 05:37:48;;;;;;;62.30;38.00;;;;;;;6.52;100.00;97912.00;5054871;28;20454;-54
2022/03/18 05:40:18;;;;;;;63.40;37.13;;;;;;;6.32;100.00;97920.94;5049398;28;20099;-53
2022/03/18 05:42:47;;;;;;;65.17;38.03;;;;;;;6.32;100.00;97919.16;5050508;28;20039;-45
2022/03/18 05:45:15;;;;;;;60.00;36.13;;;;;;;6.41;100.00;97920.44;5050222;28;20071;-50
2022/03/18 05:47:44;;;;;;;57.17;35.13;;;;;;;6.55;100.00;97922.31;5050744;28;20041;-50
2022/03/18 05:50:15;;;;;;;59.85;35.97;;;;;;;6.44;100.00;97922.91;5050383;28;20091;-48
2022/03/18 05:52:45;;;;;;;60.70;36.58;;;;;;;6.29;100.00;97927.19;5044671;28;20068;-50
2022/03/18 05:55:14;;;;;;;59.73;36.17;;;;;;;6.40;100.00;97927.47;5055078;28;20091;-47
2022/03/18 05:57:41;;;;;;;61.85;37.78;;;;;;;6.64;100.00;97929.66;5049882;28;20487;-55
2022/03/18 06:00:12;;;;;;;59.53;36.90;;;;;;;6.82;100.00;97935.69;5049122;28;20068;-50
2022/03/18 06:02:40;;;;;;;61.33;37.85;;;;;;;6.83;100.00;97937.38;5050567;28;20077;-49
2022/03/18 06:05:10;;;;;;;64.38;37.53;;;;;;;6.90;100.00;97942.19;5049268;28;20231;-51
2022/03/18 06:07:40;;;;;;;59.17;36.92;;;;;;;6.98;100.00;97936.50;5051232;28;20432;-50
2022/03/18 06:12:54;;;;;;;59.75;37.22;;;;;;;7.17;100.00;97941.56;5050061;28;20689;-50
2022/03/18 06:15:22;;;;;;;61.65;37.03;;;;;;;7.25;100.00;97946.38;5047476;28;20076;-49
2022/03/18 06:17:50;;;;;;;62.90;37.92;;;;;;;7.36;100.00;97944.84;5049705;28;20491;-52
2022/03/18 06:20:19;;;;;;;59.08;36.95;;;;;;;7.47;100.00;97943.41;5049932;28;20115;-46
2022/03/18 06:22:48;;;;;;;60.22;36.70;;;;;;;7.66;100.00;97944.00;5049721;28;20060;-52
2022/03/18 06:25:17;;;;;;;57.92;36.45;;;;;;;7.52;100.00;97952.66;5048870;28;20527;-51
2022/03/18 06:27:45;;;;;;;59.25;36.20;;;;;;;7.46;100.00;97953.03;5048979;28;20065;-45
2022/03/18 06:30:14;;;;;;;57.53;34.83;;;;;;;7.51;100.00;97950.16;5048637;28;20075;-46
2022/03/18 06:32:42;;;;;;;53.33;32.65;;;;;;;7.61;100.00;97951.31;5049975;28;20128;-51
2022/03/18 06:35:10;;;;;;;50.78;31.95;;;;;;;7.63;100.00;97957.28;5048740;28;22145;-51
2022/03/18 06:37:43;;;;;;;49.72;30.65;;;;;;;7.75;100.00;97956.59;5053367;28;20061;-45
2022/03/18 06:40:13;;;;;;;49.05;32.20;;;;;;;7.73;100.00;97965.47;5048404;28;20087;-52
2022/03/18 06:42:42;;;;;;;47.45;30.25;;;;;;;7.80;100.00;97966.81;5049387;28;20069;-47
2022/03/18 06:45:10;;;;;;;48.25;30.92;;;;;;;7.92;100.00;97973.13;5049281;28;20485;-51
2022/03/18 06:47:39;;;;;;;45.22;29.08;;;;;;;7.90;100.00;97973.22;5049676;28;20733;-48
2022/03/18 06:50:09;;;;;;;44.03;28.95;;;;;;;7.86;100.00;97984.84;5042292;28;20076;-49
2022/03/18 06:52:37;;;;;;;;;;;;;;;7.81;100.00;97989.50;5043350;28;20530;-53
2022/03/18 06:55:07;;;;;;;41.95;28.58;;;;;;;8.00;100.00;97992.75;5053157;28;19959;-55
2022/03/18 06:57:36;;;;;;;43.08;28.70;;;;;;;8.14;100.00;97994.56;5048930;28;20079;-55
2022/03/18 07:00:06;;;;;;;43.88;29.35;;;;;;;7.96;100.00;97995.66;5048389;28;20060;-46
2022/03/18 07:02:34;;;;;;;45.42;27.23;;;;;;;7.94;100.00;97997.53;5049524;28;20100;-51
2022/03/18 07:05:03;;;;;;;45.88;29.85;;;;;;;8.20;100.00;98001.25;5049049;28;20079;-46
2022/03/18 07:07:31;;;;;;;41.38;27.00;;;;;;;8.24;100.00;97998.31;5047470;28;20080;-47
2022/03/18 07:09:59;;;;;;;41.88;26.83;;;;;;;8.33;100.00;98002.19;5048405;28;20069;-52
2022/03/18 07:12:28;;;;;;;44.08;28.35;;;;;;;8.45;100.00;98003.25;5048397;28;20061;-51
2022/03/18 07:14:58;;;;;;;40.05;26.08;;;;;;;8.52;100.00;98007.19;5048729;28;20151;-49
2022/03/18 07:20:13;;;;;;;42.92;27.95;;;;;;;8.62;100.00;98005.69;5048038;28;20475;-47
2022/03/18 07:22:41;;;;;;;38.85;25.85;;;;;;;8.61;100.00;98009.28;5047167;28;20478;-46
2022/03/18 07:25:10;;;;;;;41.13;27.00;;;;;;;8.71;100.00;98012.19;5048191;28;20065;-49
2022/03/18 07:27:41;;;;;;;42.50;27.08;;;;;;;8.83;100.00;98021.09;5048260;28;20072;-45
2022/03/18 07:30:13;;;;;;;40.78;27.33;;;;;;;8.48;100.00;98014.44;5047915;28;20534;-49
2022/03/18 07:32:41;;;;;;;38.72;25.08;;;;;;;8.52;100.00;98012.47;5049126;28;20069;-50
2022/03/18 07:35:14;;;;;;;37.60;24.30;;;;;;;8.43;100.00;98019.13;5048466;28;20083;-49
2022/03/18 07:37:42;;;;;;;36.58;25.20;;;;;;;8.72;100.00;98024.41;5051275;28;20056;-46
2022/03/18 07:40:26;;;;;;;42.33;26.63;;;;;;;8.71;100.00;98033.22;5046253;28;20033;-52
2022/03/18 07:42:56;;;;;;;40.55;23.83;;;;;;;8.64;100.00;98027.50;5048019;28;20072;-50
2022/03/18 07:45:27;;;;;;;46.97;29.42;;;;;;;8.58;100.00;98033.13;5048643;28;20537;-54
2022/03/18 07:47:57;;;;;;;41.65;27.00;;;;;;;8.78;100.00;98032.75;5048241;28;20083;-49
2022/03/18 07:50:27;;;;;;;41.92;26.13;;;;;;;8.79;100.00;98031.81;5048471;28;20075;-49
2022/03/18 07:52:56;;;;;;;37.45;24.55;;;;;;;8.70;100.00;98035.00;5048688;28;20083;-46
2022/03/18 07:55:28;;;;;;;40.00;25.83;;;;;;;8.65;100.00;98046.75;5051155;28;20068;-52
2022/03/18 07:57:57;;;;;;;42.05;28.60;;;;;;;8.70;100.00;98042.03;5048512;28;20072;-50
2022/03/18 08:00:27;;;;;;;39.42;28.70;;;;;;;8.71;100.00;98046.38;5047995;28;20053;-48
2022/03/18 08:02:56;;;;;;;39.53;28.42;;;;;;;9.08;100.00;98047.56;5047270;28;20339;-47
2022/03/18 08:05:25;;;;;;;36.55;24.73;;;;;;;8.96;100.00;98054.44;5048205;28;20068;-48
2022/03/18 08:07:57;;;;;;;40.33;25.80;;;;;;;9.05;100.00;98058.31;5052250;28;20049;-48
2022/03/18 08:10:25;;;;;;;38.22;25.92;;;;;;;8.91;100.00;98058.28;5047586;28;20076;-49
2022/03/18 08:12:54;;;;;;;36.13;25.02;;;;;;;9.23;100.00;98057.13;5048519;28;20569;-50
2022/03/18 08:15:23;;;;;;;37.63;24.42;;;;;;;9.27;100.00;98058.63;5047580;28;20443;-45
2022/03/18 08:17:52;;;;;;;42.30;28.23;;;;;;;9.44;100.00;98060.19;5048352;28;20064;-49
2022/03/18 08:20:22;;;;;;;45.95;29.38;;;;;;;9.59;100.00;98063.63;5048013;28;20069;-46
2022/03/18 08:22:50;;;;;;;43.75;27.60;;;;;;;9.94;100.00;98063.09;5048273;28;20041;-51
2022/03/18 08:25:20;;;;;;;42.58;28.52;;;;;;;9.93;100.00;98071.97;5047958;28;20084;-49
2022/03/18 08:27:49;;;;;;;41.10;25.20;;;;;;;9.81;100.00;98078.91;5041654;28;20523;-52
2022/03/18 08:30:17;;;;;;;39.22;26.13;;;;;;;10.00;100.00;98078.53;5044299;28;20075;-53
2022/03/18 08:32:46;;;;;;;37.40;27.20;;;;;;;10.33;100.00;98077.28;5047690;28;20076;-49
2022/03/18 08:35:16;;;;;;;40.75;26.58;;;;;;;10.22;100.00;98081.44;5048326;28;20081;-51
2022/03/18 08:38:00;;;;;;;36.95;25.35;;;;;;;10.02;100.00;98084.56;5050726;28;20073;-52
2022/03/18 08:40:30;;;;;;;39.83;28.65;;;;;;;9.99;100.00;98077.69;5047295;28;21526;-49
2022/03/18 08:42:59;;;;;;;41.63;28.90;;;;;;;10.33;100.00;98082.53;5047877;28;20075;-49
2022/03/18 08:45:28;;;;;;;41.63;28.67;;;;;;;10.43;100.00;98073.06;5047557;28;20080;-50
2022/03/18 08:47:57;;;;;;;38.08;27.90;;;;;;;10.46;100.00;98086.03;5047912;28;20037;-48
2022/03/18 08:50:27;;;;;;;39.20;27.88;;;;;;;10.51;100.00;98085.72;5050828;28;20071;-47
2022/03/18 08:52:57;;;;;;;47.25;29.20;;;;;;;9.90;100.00;98098.53;5051703;28;20458;-48
2022/03/18 08:55:26;;;;;;;42.22;27.50;;;;;;;9.99;100.00;98100.56;5053080;28;20448;-52
2022/03/18 08:57:54;;;;;;;42.08;28.98;;;;;;;9.97;100.00;98097.16;5048305;28;20084;-51
2022/03/18 09:00:22;;;;;;;46.13;31.05;;;;;;;10.02;100.00;98108.28;5048583;28;20061;-52
2022/03/18 09:02:51;;;;;;;42.03;29.98;;;;;;;10.20;100.00;98100.94;5051067;28;20447;-47
2022/03/18 09:05:19;;;;;;;40.35;28.80;;;;;;;10.52;100.00;98097.97;5049787;28;20080;-48
2022/03/18 09:07:49;;;;;;;41.90;29.35;;;;;;;10.63;100.00;98096.28;5055858;28;20052;-48
2022/03/18 09:10:17;;;;;;;41.28;29.05;;;;;;;11.01;100.00;98102.50;5050516;28;20079;-52
2022/03/18 09:12:46;;;;;;;40.58;28.48;;;;;;;10.64;100.00;98105.88;5048183;28;20037;-47
2022/03/18 09:15:15;;;;;;;41.97;27.90;;;;;;;10.52;100.00;98111.16;5050714;28;20081;-49
2022/03/18 09:17:44;;;;;;;43.45;30.42;;;;;;;10.60;100.00;98114.13;5051065;28;20080;-48
2022/03/18 09:20:12;;;;;;;41.05;27.42;;;;;;;10.63;100.00;98114.75;5051117;28;20088;-49
2022/03/18 09:22:41;;;;;;;39.55;26.45;;;;;;;10.75;100.00;98120.16;5050664;28;20064;-47
2022/03/18 09:25:11;;;;;;;39.55;26.38;;;;;;;11.04;100.00;98108.41;5050651;28;20068;-53
2022/03/18 09:27:40;;;;;;;40.35;26.40;;;;;;;10.78;100.00;98128.69;5050652;28;20075;-50
2022/03/18 09:30:10;;;;;;;37.25;27.10;;;;;;;10.87;100.00;98124.56;5050651;28;20096;-50
2022/03/18 09:32:40;;;;;;;38.50;28.50;;;;;;;11.13;100.00;98118.34;5049229;28;20084;-50
2022/03/18 09:35:09;;;;;;;41.85;28.90;;;;;;;11.00;100.00;98117.50;5046654;28;20503;-49
2022/03/18 09:37:37;;;;;;;45.42;29.13;;;;;;;11.70;100.00;98121.38;5049207;28;20091;-45
2022/03/18 09:40:08;;;;;;;39.85;25.70;;;;;;;11.47;100.00;98120.41;5043933;28;20444;-46
2022/03/18 09:43:00;;;;;;;39.17;27.02;;;;;;;11.59;100.00;98124.78;5044904;28;20063;-46
2022/03/18 09:45:33;;;;;;;37.72;26.75;;;;;;;11.21;100.00;98127.50;5043580;28;20072;-49
2022/03/18 09:48:03;;;;;;;39.22;28.05;;;;;;;11.48;100.00;98125.56;5048588;28;20598;-47
2022/03/18 09:50:31;;;;;;;40.10;28.50;;;;;;;11.30;100.00;98130.34;5049657;28;20580;-48
2022/03/18 09:53:00;;;;;;;38.25;27.10;;;;;;;11.92;100.00;98126.84;5045782;28;20069;-53
2022/03/18 09:55:30;;;;;;;39.25;25.95;;;;;;;12.25;100.00;98123.53;5041622;28;20570;-54
2022/03/18 09:58:00;;;;;;;43.42;30.25;;;;;;;11.95;100.00;98131.91;5047849;28;20696;-49
2022/03/18 10:00:29;;;;;;;39.00;26.77;;;;;;;11.81;100.00;98124.94;5046223;28;20068;-51
2022/03/18 10:03:08;;;;;;;42.45;27.92;;;;;;;12.15;100.00;98133.09;5047901;28;20083;-50
2022/03/18 10:05:46;;;;;;;36.92;27.60;;;;;;;12.17;100.00;98135.63;5048135;28;20079;-53
2022/03/18 10:08:15;;;;;;;41.88;28.08;;;;;;;12.53;100.00;98137.34;5046413;28;21565;-55
2022/03/18 10:10:46;;;;;;;39.55;28.77;;;;;;;12.56;100.00;98140.59;5046503;28;20065;-56
2022/03/18 10:13:16;;;;;;;38.78;26.92;;;;;;;12.41;100.00;98144.38;5047270;28;20558;-52
2022/03/18 10:15:45;;;;;;;38.80;26.73;;;;;;;12.32;100.00;98150.38;5048558;28;20250;-50
2022/03/18 10:18:16;;;;;;;37.92;26.67;;;;;;;12.39;100.00;98148.94;5047015;28;20549;-46
2022/03/18 10:20:46;;;;;;;36.00;25.60;;;;;;;12.80;100.00;98139.66;5044399;28;20092;-51
2022/03/18 10:23:23;;;;;;;38.45;26.95;;;;;;;12.42;100.00;98142.56;5048531;28;20849;-47
2022/03/18 10:25:53;;;;;;;40.92;27.02;;;;;;;12.40;100.00;98145.34;5048229;28;20073;-46
2022/03/18 10:28:38;;;;;;;34.60;24.02;;;;;;;12.39;100.00;98143.66;5046128;28;20072;-53
2022/03/18 10:31:15;;;;;;;34.00;22.83;;;;;;;12.57;100.00;98139.63;5046613;28;20073;-49
2022/03/18 10:39:30;;;;;;;35.47;26.20;;;;;;;13.05;100.00;98139.47;5046343;28;20068;-52
2022/03/18 10:42:01;;;;;;;34.28;24.15;;;;;;;12.63;95.11;98140.09;5047036;28;20073;-55
2022/03/18 10:44:32;;;;;;;;;;;;;;;12.98;96.64;98135.63;5049129;28;20088;-50
2022/03/18 10:47:00;;;;;;;38.58;26.67;;;;;;;12.83;93.43;98134.13;5046637;28;20392;-52
2022/03/18 10:49:28;;;;;;;37.88;25.48;;;;;;;12.70;98.51;98130.75;5047258;28;20049;-55
2022/03/18 10:52:09;;;;;;;36.80;25.08;;;;;;;12.94;88.54;98136.81;5048017;28;20060;-55
2022/03/18 10:54:38;;;;;;;35.10;25.30;;;;;;;12.61;81.62;98142.03;5046634;28;20072;-51
2022/03/18 10:57:06;;;;;;;35.55;25.98;;;;;;;13.05;100.00;98144.78;5046510;28;20065;-47
2022/03/18 10:59:37;;;;;;;37.13;28.02;;;;;;;13.06;100.00;98143.81;5046906;28;20080;-51
2022/03/18 11:02:06;;;;;;;33.33;24.40;;;;;;;13.33;75.29;98147.97;5046243;28;20071;-49
2022/03/18 11:04:34;;;;;;;37.75;26.98;;;;;;;13.15;84.81;98152.03;5046286;28;20116;-57
2022/03/18 11:12:36;;;;;;;30.73;21.98;;;;;;;13.19;67.88;98159.59;5045976;28;20567;-53
2022/03/18 11:15:07;;;;;;;30.75;22.20;;;;;;;12.76;64.75;98148.81;5047193;28;20065;-49
2022/03/18 11:17:35;;;;;;;27.27;20.17;;;;;;;12.83;62.21;98160.63;5045656;28;20534;-47
2022/03/18 11:20:04;;;;;;;28.52;19.77;;;;;;;12.72;58.21;98150.00;5046456;28;20064;-50
2022/03/18 11:22:34;;;;;;;33.08;20.60;;;;;;;13.14;61.18;98163.56;5046337;28;20069;-54
2022/03/18 11:25:03;;;;;;;29.42;22.85;;;;;;;12.71;62.24;98161.56;5045877;28;20073;-55
2022/03/18 11:27:31;;;;;;;29.48;20.05;;;;;;;12.73;64.39;98165.78;5046609;28;20061;-47
2022/03/18 11:30:20;;;;;;;31.77;21.60;;;;;;;13.45;63.56;98162.88;5046199;28;20165;-49
2022/03/18 11:33:17;;;;;;;30.98;20.35;;;;;;;13.04;74.79;98160.78;5046910;28;20095;-50
2022/03/18 11:36:05;;;;;;;32.75;22.33;;;;;;;13.18;66.32;98162.34;5047114;28;20084;-50
2022/03/18 11:38:58;;;;;;;29.83;21.42;;;;;;;13.16;73.52;98164.28;5046320;28;20088;-47
2022/03/18 11:41:28;;;;;;;30.40;20.83;;;;;;;13.17;70.47;98168.63;5045850;28;20481;-47
2022/03/18 11:43:57;;;;;;;29.80;23.20;;;;;;;12.60;68.12;98165.03;5049976;28;20065;-50
2022/03/18 11:46:27;;;;;;;32.25;22.15;;;;;;;12.73;70.76;98159.63;5046786;28;20491;-51
2022/03/18 11:48:57;;;;;;;32.78;23.20;;;;;;;12.75;68.78;98166.50;5045160;28;20072;-55
2022/03/18 11:51:29;;;;;;;34.88;21.40;;;;;;;12.75;71.50;98163.00;5045543;28;20065;-53
2022/03/18 11:53:59;;;;;;;29.05;20.00;;;;;;;12.59;69.40;98169.47;5046818;28;20703;-50